Detroit, Michigan
Traffic Map
Current Weather Conditions
Detroit, Michigan
Clear
Clear
54°
Feels Like: 54°
Wind Chill: 54° Ceiling: Unl
Heat Index: 54° Visibility: 15mi
Dew Point: 52° Wind: 2mph
Humidity: 94% Direction: 280° (W)
Pressure: 30.06in Gusts: 0mph
Raw Report DataCYQG 230700Z 28002KT 15SM SKC 12/11 A3006 RMK SLP180
Traffic Incident Summary
Active as of:
Severity:
Category:
InformationThere was an issue retrieving the traffic information for this location. Please try a different location or try again shortly.
Advertisements